sensor_id;sensor_type;location;lat;lon;timestamp;pressure;altitude;pressure_sealevel;temperature;humidity
43934;BME280;59081;42.706;23.306;2022-08-03T00:01:40;95202.56;;;21.62;49.15
43934;BME280;59081;42.706;23.306;2022-08-03T00:04:07;95234.69;;;21.72;49.44
43934;BME280;59081;42.706;23.306;2022-08-03T00:06:33;95231.84;;;21.66;49.44
43934;BME280;59081;42.706;23.306;2022-08-03T00:08:59;95172.00;;;21.41;48.78
43934;BME280;59081;42.706;23.306;2022-08-03T00:11:25;95264.25;;;21.95;48.65
43934;BME280;59081;42.706;23.306;2022-08-03T00:13:51;95224.47;;;21.74;49.03
43934;BME280;59081;42.706;23.306;2022-08-03T00:16:17;95210.22;;;21.61;49.46
43934;BME280;59081;42.706;23.306;2022-08-03T00:18:43;95197.47;;;21.43;50.13
43934;BME280;59081;42.706;23.306;2022-08-03T00:21:09;95281.88;;;22.01;50.44
43934;BME280;59081;42.706;23.306;2022-08-03T00:23:35;95229.56;;;21.65;50.32
43934;BME280;59081;42.706;23.306;2022-08-03T00:26:01;95197.22;;;21.41;50.35
43934;BME280;59081;42.706;23.306;2022-08-03T00:28:26;95227.81;;;21.62;50.68
43934;BME280;59081;42.706;23.306;2022-08-03T00:30:52;95225.75;;;21.62;50.91
43934;BME280;59081;42.706;23.306;2022-08-03T00:33:17;95236.22;;;21.62;50.67
43934;BME280;59081;42.706;23.306;2022-08-03T00:35:43;95261.44;;;21.89;50.96
43934;BME280;59081;42.706;23.306;2022-08-03T00:38:09;95200.00;;;21.52;51.16
43934;BME280;59081;42.706;23.306;2022-08-03T00:40:35;95230.34;;;21.71;51.32
43934;BME280;59081;42.706;23.306;2022-08-03T00:43:03;95276.50;;;21.98;51.65
43934;BME280;59081;42.706;23.306;2022-08-03T00:45:34;95231.38;;;21.73;51.28
43934;BME280;59081;42.706;23.306;2022-08-03T00:48:00;95280.34;;;22.06;51.40
43934;BME280;59081;42.706;23.306;2022-08-03T00:50:28;95243.84;;;21.83;51.60
43934;BME280;59081;42.706;23.306;2022-08-03T00:52:57;95201.03;;;21.61;51.74
43934;BME280;59081;42.706;23.306;2022-08-03T00:55:23;95181.16;;;21.42;51.56
43934;BME280;59081;42.706;23.306;2022-08-03T00:57:49;95197.22;;;21.58;51.61
43934;BME280;59081;42.706;23.306;2022-08-03T01:00:18;95210.97;;;21.67;51.74
43934;BME280;59081;42.706;23.306;2022-08-03T01:02:44;95208.44;;;21.58;52.13
43934;BME280;59081;42.706;23.306;2022-08-03T01:05:10;95219.41;;;21.62;51.66
43934;BME280;59081;42.706;23.306;2022-08-03T01:07:45;95280.59;;;22.02;51.53
43934;BME280;59081;42.706;23.306;2022-08-03T01:10:18;95272.41;;;21.99;51.84
43934;BME280;59081;42.706;23.306;2022-08-03T01:12:56;95188.81;;;21.41;51.50
43934;BME280;59081;42.706;23.306;2022-08-03T01:18:08;95186.00;;;21.41;51.66
43934;BME280;59081;42.706;23.306;2022-08-03T01:20:39;95242.84;;;21.64;51.96
43934;BME280;59081;42.706;23.306;2022-08-03T01:23:32;95271.66;;;21.81;51.93
43934;BME280;59081;42.706;23.306;2022-08-03T01:32:14;95262.72;;;21.77;52.36
43934;BME280;59081;42.706;23.306;2022-08-03T01:34:45;95205.59;;;21.30;52.49
43934;BME280;59081;42.706;23.306;2022-08-03T01:37:15;95211.94;;;21.31;53.04
43934;BME280;59081;42.706;23.306;2022-08-03T01:39:46;95233.59;;;21.25;53.36
43934;BME280;59081;42.706;23.306;2022-08-03T01:42:13;95204.53;;;21.11;53.35
43934;BME280;59081;42.706;23.306;2022-08-03T01:44:42;95189.19;;;20.90;53.58
43934;BME280;59081;42.706;23.306;2022-08-03T01:47:10;95221.56;;;21.07;53.76
43934;BME280;59081;42.706;23.306;2022-08-03T01:49:39;95234.56;;;21.16;53.94
43934;BME280;59081;42.706;23.306;2022-08-03T01:52:07;95208.28;;;20.91;54.20
43934;BME280;59081;42.706;23.306;2022-08-03T01:54:35;95168.22;;;20.63;53.90
43934;BME280;59081;42.706;23.306;2022-08-03T01:57:03;95175.91;;;20.79;53.79
43934;BME280;59081;42.706;23.306;2022-08-03T01:59:29;95250.69;;;21.27;54.14
43934;BME280;59081;42.706;23.306;2022-08-03T02:01:57;95208.31;;;21.02;53.89
43934;BME280;59081;42.706;23.306;2022-08-03T02:04:24;95209.31;;;20.94;53.94
43934;BME280;59081;42.706;23.306;2022-08-03T02:06:52;95221.50;;;20.96;54.04
43934;BME280;59081;42.706;23.306;2022-08-03T02:09:20;95238.09;;;21.05;54.19
43934;BME280;59081;42.706;23.306;2022-08-03T02:11:47;95189.63;;;20.71;53.97
43934;BME280;59081;42.706;23.306;2022-08-03T02:14:14;95175.34;;;20.58;54.09
43934;BME280;59081;42.706;23.306;2022-08-03T02:16:42;95217.41;;;20.86;53.69
43934;BME280;59081;42.706;23.306;2022-08-03T02:19:10;95212.88;;;20.94;53.72
43934;BME280;59081;42.706;23.306;2022-08-03T02:21:36;95213.81;;;20.80;53.66
43934;BME280;59081;42.706;23.306;2022-08-03T02:24:04;95235.50;;;20.96;53.37
43934;BME280;59081;42.706;23.306;2022-08-03T02:26:30;95233.75;;;20.93;53.33
43934;BME280;59081;42.706;23.306;2022-08-03T02:29:01;95202.13;;;20.76;53.06
43934;BME280;59081;42.706;23.306;2022-08-03T02:31:29;95194.16;;;20.63;53.21
43934;BME280;59081;42.706;23.306;2022-08-03T02:34:02;95270.41;;;20.95;53.49
43934;BME280;59081;42.706;23.306;2022-08-03T02:36:31;95197.22;;;20.17;54.11
43934;BME280;59081;42.706;23.306;2022-08-03T02:38:59;95182.97;;;20.15;54.05
43934;BME280;59081;42.706;23.306;2022-08-03T02:41:44;95167.16;;;20.01;54.33
43934;BME280;59081;42.706;23.306;2022-08-03T02:44:12;95223.06;;;20.43;54.22
43934;BME280;59081;42.706;23.306;2022-08-03T02:46:41;95211.00;;;20.26;54.85
43934;BME280;59081;42.706;23.306;2022-08-03T02:49:09;95250.09;;;20.52;54.70
43934;BME280;59081;42.706;23.306;2022-08-03T02:51:36;95182.84;;;19.93;55.38
43934;BME280;59081;42.706;23.306;2022-08-03T02:54:04;95239.63;;;20.41;54.82
43934;BME280;59081;42.706;23.306;2022-08-03T02:56:31;95207.47;;;20.26;54.85
43934;BME280;59081;42.706;23.306;2022-08-03T02:58:58;95181.72;;;20.16;54.39
43934;BME280;59081;42.706;23.306;2022-08-03T03:01:25;95189.91;;;20.25;54.29
43934;BME280;59081;42.706;23.306;2022-08-03T03:03:53;95221.31;;;20.40;54.19
43934;BME280;59081;42.706;23.306;2022-08-03T03:06:20;95248.09;;;20.58;54.30
43934;BME280;59081;42.706;23.306;2022-08-03T03:08:47;95188.53;;;20.09;54.02
43934;BME280;59081;42.706;23.306;2022-08-03T03:11:14;95151.81;;;19.85;54.35
43934;BME280;59081;42.706;23.306;2022-08-03T03:13:42;95220.97;;;20.33;54.09
43934;BME280;59081;42.706;23.306;2022-08-03T03:16:11;95201.53;;;20.12;54.49
43934;BME280;59081;42.706;23.306;2022-08-03T03:18:38;95212.94;;;20.09;54.91
43934;BME280;59081;42.706;23.306;2022-08-03T03:21:06;95170.50;;;19.68;55.50
43934;BME280;59081;42.706;23.306;2022-08-03T03:23:36;95211.28;;;19.86;55.78
43934;BME280;59081;42.706;23.306;2022-08-03T03:26:02;95298.63;;;20.43;55.79
43934;BME280;59081;42.706;23.306;2022-08-03T03:28:29;95220.44;;;19.92;56.14
43934;BME280;59081;42.706;23.306;2022-08-03T03:30:55;95270.88;;;20.03;56.50
43934;BME280;59081;42.706;23.306;2022-08-03T03:33:21;95237.69;;;19.85;56.13
43934;BME280;59081;42.706;23.306;2022-08-03T03:35:47;95218.34;;;19.81;56.28
43934;BME280;59081;42.706;23.306;2022-08-03T03:38:13;95239.78;;;19.90;55.98
43934;BME280;59081;42.706;23.306;2022-08-03T03:40:38;95277.34;;;20.20;56.02
43934;BME280;59081;42.706;23.306;2022-08-03T03:43:09;95237.47;;;19.88;56.12
43934;BME280;59081;42.706;23.306;2022-08-03T03:45:34;95264.44;;;19.91;56.42
43934;BME280;59081;42.706;23.306;2022-08-03T03:48:01;95266.41;;;19.85;56.51
43934;BME280;59081;42.706;23.306;2022-08-03T03:50:29;95267.94;;;19.86;56.56
43934;BME280;59081;42.706;23.306;2022-08-03T03:52:55;95267.72;;;19.90;56.88
43934;BME280;59081;42.706;23.306;2022-08-03T03:55:21;95254.94;;;19.83;56.67
43934;BME280;59081;42.706;23.306;2022-08-03T03:57:46;95252.38;;;19.79;56.84
43934;BME280;59081;42.706;23.306;2022-08-03T04:00:13;95245.88;;;19.62;57.18
43934;BME280;59081;42.706;23.306;2022-08-03T04:02:39;95278.13;;;19.89;57.12
43934;BME280;59081;42.706;23.306;2022-08-03T04:05:06;95301.06;;;19.99;57.69
43934;BME280;59081;42.706;23.306;2022-08-03T04:08:00;95233.44;;;19.63;57.13
43934;BME280;59081;42.706;23.306;2022-08-03T04:14:07;95236.06;;;19.72;57.64
43934;BME280;59081;42.706;23.306;2022-08-03T04:16:35;95242.94;;;19.77;57.57
43934;BME280;59081;42.706;23.306;2022-08-03T04:19:05;95249.16;;;19.87;57.07
43934;BME280;59081;42.706;23.306;2022-08-03T04:21:34;95316.94;;;20.44;56.91
43934;BME280;59081;42.706;23.306;2022-08-03T04:24:03;95230.63;;;19.95;56.54
43934;BME280;59081;42.706;23.306;2022-08-03T04:26:33;95262.59;;;20.20;56.54
43934;BME280;59081;42.706;23.306;2022-08-03T04:29:01;95232.88;;;19.85;56.77
43934;BME280;59081;42.706;23.306;2022-08-03T04:31:28;95266.66;;;20.19;56.60
43934;BME280;59081;42.706;23.306;2022-08-03T04:33:55;95243.28;;;20.22;58.81
43934;BME280;59081;42.706;23.306;2022-08-03T04:36:25;95241.47;;;20.61;59.13
43934;BME280;59081;42.706;23.306;2022-08-03T04:39:09;95273.59;;;21.36;56.19
43934;BME280;59081;42.706;23.306;2022-08-03T04:41:38;95290.50;;;21.75;54.90
43934;BME280;59081;42.706;23.306;2022-08-03T04:44:05;95273.41;;;21.68;52.65
43934;BME280;59081;42.706;23.306;2022-08-03T04:46:34;95294.34;;;21.95;52.72
43934;BME280;59081;42.706;23.306;2022-08-03T04:49:01;95265.81;;;22.02;51.47
43934;BME280;59081;42.706;23.306;2022-08-03T04:51:28;95277.25;;;22.37;51.50
43934;BME280;59081;42.706;23.306;2022-08-03T04:53:54;95332.28;;;22.96;50.76
43934;BME280;59081;42.706;23.306;2022-08-03T04:56:19;95281.50;;;22.72;50.54
43934;BME280;59081;42.706;23.306;2022-08-03T04:58:45;95311.56;;;23.05;49.61
43934;BME280;59081;42.706;23.306;2022-08-03T05:01:11;95329.38;;;23.24;49.10
43934;BME280;59081;42.706;23.306;2022-08-03T05:03:36;95320.69;;;23.22;48.86
43934;BME280;59081;42.706;23.306;2022-08-03T05:06:02;95281.97;;;22.98;49.02
43934;BME280;59081;42.706;23.306;2022-08-03T05:08:27;95284.19;;;23.16;49.11
43934;BME280;59081;42.706;23.306;2022-08-03T05:10:54;95275.28;;;23.12;49.67
43934;BME280;59081;42.706;23.306;2022-08-03T05:13:19;95287.19;;;23.30;49.96
43934;BME280;59081;42.706;23.306;2022-08-03T05:15:45;95286.25;;;23.16;51.42
43934;BME280;59081;42.706;23.306;2022-08-03T05:18:10;95302.25;;;23.32;48.59
43934;BME280;59081;42.706;23.306;2022-08-03T05:20:36;95295.34;;;23.33;49.12
43934;BME280;59081;42.706;23.306;2022-08-03T05:23:01;95360.75;;;23.91;48.95
43934;BME280;59081;42.706;23.306;2022-08-03T05:25:28;95320.22;;;23.70;48.54
43934;BME280;59081;42.706;23.306;2022-08-03T05:27:54;95274.56;;;23.47;47.77
43934;BME280;59081;42.706;23.306;2022-08-03T05:30:19;95314.03;;;23.77;47.63
43934;BME280;59081;42.706;23.306;2022-08-03T05:32:45;95276.81;;;23.60;48.87
43934;BME280;59081;42.706;23.306;2022-08-03T05:35:10;95380.97;;;24.31;49.60
43934;BME280;59081;42.706;23.306;2022-08-03T05:37:36;95283.47;;;23.57;49.02
43934;BME280;59081;42.706;23.306;2022-08-03T05:40:02;95318.34;;;23.84;48.83
43934;BME280;59081;42.706;23.306;2022-08-03T05:42:28;95327.59;;;23.79;47.71
43934;BME280;59081;42.706;23.306;2022-08-03T05:44:53;95376.47;;;24.11;48.76
43934;BME280;59081;42.706;23.306;2022-08-03T05:47:19;95281.44;;;23.57;48.52
43934;BME280;59081;42.706;23.306;2022-08-03T05:49:44;95316.03;;;23.88;47.57
43934;BME280;59081;42.706;23.306;2022-08-03T05:52:10;95299.66;;;23.86;47.57
43934;BME280;59081;42.706;23.306;2022-08-03T05:54:35;95379.19;;;24.28;46.88
43934;BME280;59081;42.706;23.306;2022-08-03T05:57:00;95386.00;;;24.03;47.71
43934;BME280;59081;42.706;23.306;2022-08-03T05:59:26;95348.91;;;23.63;47.60
43934;BME280;59081;42.706;23.306;2022-08-03T06:01:51;95348.19;;;23.92;47.94
43934;BME280;59081;42.706;23.306;2022-08-03T06:04:17;95317.22;;;23.57;46.38
43934;BME280;59081;42.706;23.306;2022-08-03T06:06:43;95316.34;;;23.79;46.37
43934;BME280;59081;42.706;23.306;2022-08-03T06:09:09;95318.31;;;23.89;47.12
43934;BME280;59081;42.706;23.306;2022-08-03T06:11:38;95321.22;;;24.08;46.26
43934;BME280;59081;42.706;23.306;2022-08-03T06:14:04;95346.91;;;24.35;45.12
43934;BME280;59081;42.706;23.306;2022-08-03T06:16:30;95345.88;;;24.38;46.00
43934;BME280;59081;42.706;23.306;2022-08-03T06:18:55;95279.75;;;23.84;46.04
43934;BME280;59081;42.706;23.306;2022-08-03T06:21:21;95348.94;;;24.40;45.68
43934;BME280;59081;42.706;23.306;2022-08-03T06:23:46;95301.09;;;24.34;45.88
43934;BME280;59081;42.706;23.306;2022-08-03T06:26:12;95329.88;;;24.51;45.56
43934;BME280;59081;42.706;23.306;2022-08-03T06:28:38;95338.13;;;24.74;45.19
43934;BME280;59081;42.706;23.306;2022-08-03T06:31:04;95313.53;;;24.74;43.42
43934;BME280;59081;42.706;23.306;2022-08-03T06:33:29;95308.59;;;24.56;44.70
43934;BME280;59081;42.706;23.306;2022-08-03T06:35:55;95372.50;;;25.21;44.60
43934;BME280;59081;42.706;23.306;2022-08-03T06:38:20;95344.13;;;25.13;43.92
43934;BME280;59081;42.706;23.306;2022-08-03T06:40:46;95322.66;;;25.10;43.24
43934;BME280;59081;42.706;23.306;2022-08-03T06:43:11;95293.34;;;24.70;42.29
43934;BME280;59081;42.706;23.306;2022-08-03T06:45:39;95366.63;;;24.64;44.26
43934;BME280;59081;42.706;23.306;2022-08-03T06:48:06;95383.25;;;24.33;46.17
43934;BME280;59081;42.706;23.306;2022-08-03T06:50:33;95300.09;;;24.32;45.16
43934;BME280;59081;42.706;23.306;2022-08-03T06:52:59;95377.84;;;23.99;46.17
43934;BME280;59081;42.706;23.306;2022-08-03T06:55:26;95329.00;;;23.50;47.17
43934;BME280;59081;42.706;23.306;2022-08-03T06:57:52;95328.75;;;23.94;48.41
43934;BME280;59081;42.706;23.306;2022-08-03T07:00:18;95361.53;;;24.27;45.92
43934;BME280;59081;42.706;23.306;2022-08-03T07:02:44;95335.41;;;24.33;47.41
43934;BME280;59081;42.706;23.306;2022-08-03T07:05:10;95282.59;;;24.09;46.06
43934;BME280;59081;42.706;23.306;2022-08-03T07:07:36;95289.72;;;24.45;44.51
43934;BME280;59081;42.706;23.306;2022-08-03T07:10:02;95372.63;;;24.80;44.34
43934;BME280;59081;42.706;23.306;2022-08-03T07:12:29;95338.13;;;24.74;44.54
43934;BME280;59081;42.706;23.306;2022-08-03T07:14:55;95336.06;;;24.74;44.31
43934;BME280;59081;42.706;23.306;2022-08-03T07:17:21;95327.91;;;24.95;44.09
43934;BME280;59081;42.706;23.306;2022-08-03T07:19:47;95332.06;;;25.13;43.42
43934;BME280;59081;42.706;23.306;2022-08-03T07:22:13;95329.22;;;25.18;43.13
43934;BME280;59081;42.706;23.306;2022-08-03T07:24:38;95309.44;;;25.00;41.50
43934;BME280;59081;42.706;23.306;2022-08-03T07:27:04;95313.81;;;24.71;43.29
43934;BME280;59081;42.706;23.306;2022-08-03T07:29:29;95305.31;;;24.76;43.24
43934;BME280;59081;42.706;23.306;2022-08-03T07:31:55;95324.16;;;24.87;42.44
43934;BME280;59081;42.706;23.306;2022-08-03T07:34:20;95357.09;;;25.22;42.24
43934;BME280;59081;42.706;23.306;2022-08-03T07:36:46;95364.41;;;25.30;43.22
43934;BME280;59081;42.706;23.306;2022-08-03T07:39:11;95331.28;;;25.37;42.26
43934;BME280;59081;42.706;23.306;2022-08-03T07:41:37;95325.19;;;25.32;41.65
43934;BME280;59081;42.706;23.306;2022-08-03T07:44:02;95328.34;;;25.66;42.91
43934;BME280;59081;42.706;23.306;2022-08-03T07:46:28;95304.25;;;25.84;40.42
43934;BME280;59081;42.706;23.306;2022-08-03T07:48:53;95319.06;;;25.90;41.11
43934;BME280;59081;42.706;23.306;2022-08-03T07:51:19;95283.50;;;25.82;39.21
43934;BME280;59081;42.706;23.306;2022-08-03T07:53:44;95323.13;;;26.27;39.36
43934;BME280;59081;42.706;23.306;2022-08-03T07:56:10;95374.56;;;26.39;40.09
43934;BME280;59081;42.706;23.306;2022-08-03T07:58:35;95317.81;;;26.05;39.98
43934;BME280;59081;42.706;23.306;2022-08-03T08:01:01;95345.09;;;26.34;39.39
43934;BME280;59081;42.706;23.306;2022-08-03T08:03:26;95314.44;;;26.06;38.58
43934;BME280;59081;42.706;23.306;2022-08-03T08:05:52;95341.19;;;26.18;38.56
43934;BME280;59081;42.706;23.306;2022-08-03T08:08:18;95321.19;;;26.35;38.75
43934;BME280;59081;42.706;23.306;2022-08-03T08:10:45;95299.91;;;26.34;37.13
43934;BME280;59081;42.706;23.306;2022-08-03T08:13:10;95390.84;;;26.64;37.97
43934;BME280;59081;42.706;23.306;2022-08-03T08:15:36;95375.59;;;26.67;37.87
43934;BME280;59081;42.706;23.306;2022-08-03T08:18:01;95348.56;;;26.72;37.92
43934;BME280;59081;42.706;23.306;2022-08-03T08:20:33;95334.56;;;26.80;37.49
43934;BME280;59081;42.706;23.306;2022-08-03T08:23:00;95334.19;;;26.25;40.54
43934;BME280;59081;42.706;23.306;2022-08-03T08:25:27;95324.09;;;26.48;36.72
43934;BME280;59081;42.706;23.306;2022-08-03T08:27:53;95345.19;;;26.74;36.31
43934;BME280;59081;42.706;23.306;2022-08-03T08:30:20;95303.00;;;26.49;37.18
43934;BME280;59081;42.706;23.306;2022-08-03T08:32:46;95311.28;;;26.60;37.61
43934;BME280;59081;42.706;23.306;2022-08-03T08:35:13;95334.84;;;27.08;37.00
43934;BME280;59081;42.706;23.306;2022-08-03T08:37:39;95363.56;;;27.52;36.44
43934;BME280;59081;42.706;23.306;2022-08-03T08:40:06;95332.84;;;27.56;36.86
43934;BME280;59081;42.706;23.306;2022-08-03T08:42:33;95366.72;;;28.08;35.25
43934;BME280;59081;42.706;23.306;2022-08-03T08:45:01;95311.78;;;27.91;34.95
43934;BME280;59081;42.706;23.306;2022-08-03T08:47:30;95333.34;;;28.28;34.92
43934;BME280;59081;42.706;23.306;2022-08-03T08:49:57;95334.97;;;28.57;34.98
43934;BME280;59081;42.706;23.306;2022-08-03T08:52:24;95316.16;;;28.47;32.81
43934;BME280;59081;42.706;23.306;2022-08-03T08:55:09;95328.22;;;28.26;34.63
43934;BME280;59081;42.706;23.306;2022-08-03T08:57:49;95329.13;;;28.42;33.77
43934;BME280;59081;42.706;23.306;2022-08-03T09:00:17;95319.31;;;28.43;33.70
43934;BME280;59081;42.706;23.306;2022-08-03T09:02:44;95360.41;;;28.91;33.13
43934;BME280;59081;42.706;23.306;2022-08-03T09:05:14;95304.84;;;28.75;31.70
43934;BME280;59081;42.706;23.306;2022-08-03T09:07:41;95312.97;;;28.92;32.35
43934;BME280;59081;42.706;23.306;2022-08-03T09:10:08;95328.34;;;29.04;31.91
43934;BME280;59081;42.706;23.306;2022-08-03T09:12:52;95313.34;;;28.96;32.59
43934;BME280;59081;42.706;23.306;2022-08-03T09:15:21;95352.53;;;29.26;32.02
43934;BME280;59081;42.706;23.306;2022-08-03T09:17:48;95292.28;;;28.84;32.04
43934;BME280;59081;42.706;23.306;2022-08-03T09:20:14;95316.06;;;29.37;30.71
43934;BME280;59081;42.706;23.306;2022-08-03T09:25:28;95343.31;;;29.69;29.96
43934;BME280;59081;42.706;23.306;2022-08-03T09:28:03;95266.56;;;29.10;30.68
43934;BME280;59081;42.706;23.306;2022-08-03T09:30:29;95287.50;;;29.35;30.24
43934;BME280;59081;42.706;23.306;2022-08-03T09:33:13;95345.78;;;29.36;30.40
43934;BME280;59081;42.706;23.306;2022-08-03T09:35:42;95294.44;;;29.27;29.43
43934;BME280;59081;42.706;23.306;2022-08-03T09:40:40;95290.59;;;29.45;29.87
43934;BME280;59081;42.706;23.306;2022-08-03T09:43:06;95302.91;;;29.91;29.96
43934;BME280;59081;42.706;23.306;2022-08-03T09:45:36;95286.28;;;29.52;29.92
43934;BME280;59081;42.706;23.306;2022-08-03T09:48:19;95350.41;;;29.91;30.21
43934;BME280;59081;42.706;23.306;2022-08-03T09:50:50;95275.03;;;29.82;29.22
43934;BME280;59081;42.706;23.306;2022-08-03T09:53:17;95250.06;;;29.37;30.42
43934;BME280;59081;42.706;23.306;2022-08-03T09:55:58;95256.63;;;29.60;29.60
43934;BME280;59081;42.706;23.306;2022-08-03T09:58:27;95227.88;;;29.71;29.34
43934;BME280;59081;42.706;23.306;2022-08-03T10:00:58;95264.84;;;29.94;29.69
43934;BME280;59081;42.706;23.306;2022-08-03T10:03:35;95240.03;;;29.87;29.90
43934;BME280;59081;42.706;23.306;2022-08-03T10:06:20;95262.59;;;30.00;28.70
43934;BME280;59081;42.706;23.306;2022-08-03T10:09:15;95297.34;;;30.44;28.88
43934;BME280;59081;42.706;23.306;2022-08-03T10:29:55;95244.47;;;30.41;29.20
43934;BME280;59081;42.706;23.306;2022-08-03T10:32:29;95239.31;;;30.02;29.50
43934;BME280;59081;42.706;23.306;2022-08-03T10:35:15;95219.25;;;30.15;28.59
43934;BME280;59081;42.706;23.306;2022-08-03T10:40:35;95234.78;;;30.06;29.40
43934;BME280;59081;42.706;23.306;2022-08-03T10:43:06;95292.06;;;30.71;29.47
43934;BME280;59081;42.706;23.306;2022-08-03T10:45:40;95224.19;;;30.07;29.61
43934;BME280;59081;42.706;23.306;2022-08-03T10:48:14;95229.38;;;29.65;29.83
43934;BME280;59081;42.706;23.306;2022-08-03T10:50:41;95317.28;;;30.60;29.74
43934;BME280;59081;42.706;23.306;2022-08-03T10:53:10;95296.44;;;30.72;29.30
43934;BME280;59081;42.706;23.306;2022-08-03T10:55:38;95280.13;;;30.96;28.56
43934;BME280;59081;42.706;23.306;2022-08-03T10:58:48;95290.53;;;31.08;28.74
43934;BME280;59081;42.706;23.306;2022-08-03T11:01:14;95225.38;;;30.65;28.29
43934;BME280;59081;42.706;23.306;2022-08-03T11:06:25;95206.03;;;30.56;28.34
43934;BME280;59081;42.706;23.306;2022-08-03T11:11:42;95299.09;;;31.16;28.43
43934;BME280;59081;42.706;23.306;2022-08-03T11:14:16;95217.41;;;30.56;28.66
43934;BME280;59081;42.706;23.306;2022-08-03T11:16:44;95296.22;;;31.08;27.34
43934;BME280;59081;42.706;23.306;2022-08-03T11:27:31;95284.94;;;31.96;27.51
43934;BME280;59081;42.706;23.306;2022-08-03T11:46:06;95273.06;;;32.72;25.84
43934;BME280;59081;42.706;23.306;2022-08-03T11:48:40;95197.19;;;32.52;26.07
43934;BME280;59081;42.706;23.306;2022-08-03T11:51:28;95266.03;;;32.73;26.30
43934;BME280;59081;42.706;23.306;2022-08-03T11:54:00;95269.56;;;32.81;26.07
43934;BME280;59081;42.706;23.306;2022-08-03T11:56:27;95208.50;;;32.84;25.97
43934;BME280;59081;42.706;23.306;2022-08-03T12:01:27;95198.09;;;33.14;25.59
43934;BME280;59081;42.706;23.306;2022-08-03T12:06:26;95232.75;;;33.79;24.33
43934;BME280;59081;42.706;23.306;2022-08-03T12:08:52;95191.16;;;33.69;24.06
43934;BME280;59081;42.706;23.306;2022-08-03T12:11:17;95191.22;;;33.34;24.23
43934;BME280;59081;42.706;23.306;2022-08-03T12:13:46;95189.88;;;33.01;24.38
43934;BME280;59081;42.706;23.306;2022-08-03T12:16:22;95212.78;;;32.93;24.49
43934;BME280;59081;42.706;23.306;2022-08-03T12:18:56;95207.84;;;32.51;25.58
43934;BME280;59081;42.706;23.306;2022-08-03T12:21:21;95209.00;;;32.24;26.34
43934;BME280;59081;42.706;23.306;2022-08-03T12:23:49;95169.91;;;31.04;25.85
43934;BME280;59081;42.706;23.306;2022-08-03T12:26:14;95176.25;;;30.79;27.30
43934;BME280;59081;42.706;23.306;2022-08-03T12:28:49;95202.38;;;30.86;27.86
43934;BME280;59081;42.706;23.306;2022-08-03T12:31:18;95197.09;;;30.67;27.96
43934;BME280;59081;42.706;23.306;2022-08-03T12:33:58;95193.69;;;30.38;28.90
43934;BME280;59081;42.706;23.306;2022-08-03T12:36:24;95230.94;;;31.18;28.43
43934;BME280;59081;42.706;23.306;2022-08-03T12:38:59;95201.75;;;31.18;27.45
43934;BME280;59081;42.706;23.306;2022-08-03T12:41:29;95234.66;;;31.51;27.47
43934;BME280;59081;42.706;23.306;2022-08-03T12:43:56;95224.50;;;31.10;27.73
43934;BME280;59081;42.706;23.306;2022-08-03T12:46:21;95163.19;;;30.54;28.02
43934;BME280;59081;42.706;23.306;2022-08-03T12:49:02;95196.59;;;31.31;27.72
43934;BME280;59081;42.706;23.306;2022-08-03T12:51:30;95180.66;;;32.01;26.87
43934;BME280;59081;42.706;23.306;2022-08-03T12:53:57;95169.44;;;32.53;26.07
43934;BME280;59081;42.706;23.306;2022-08-03T12:56:23;95220.16;;;32.79;26.17
43934;BME280;59081;42.706;23.306;2022-08-03T12:58:49;95178.72;;;32.95;25.83
43934;BME280;59081;42.706;23.306;2022-08-03T13:04:55;95176.19;;;32.99;24.27
43934;BME280;59081;42.706;23.306;2022-08-03T13:07:21;95176.97;;;33.00;24.54
43934;BME280;59081;42.706;23.306;2022-08-03T13:09:49;95200.19;;;32.37;25.09
43934;BME280;59081;42.706;23.306;2022-08-03T13:12:17;95216.56;;;32.29;25.24
43934;BME280;59081;42.706;23.306;2022-08-03T13:14:44;95178.91;;;32.55;25.24
43934;BME280;59081;42.706;23.306;2022-08-03T13:17:10;95154.88;;;31.91;26.11
43934;BME280;59081;42.706;23.306;2022-08-03T13:19:37;95145.59;;;31.91;26.17
43934;BME280;59081;42.706;23.306;2022-08-03T13:22:14;95214.63;;;32.56;25.82
43934;BME280;59081;42.706;23.306;2022-08-03T13:24:40;95159.34;;;31.77;26.80
43934;BME280;59081;42.706;23.306;2022-08-03T13:27:06;95181.28;;;31.92;27.48
43934;BME280;59081;42.706;23.306;2022-08-03T13:29:33;95160.63;;;31.51;28.18
43934;BME280;59081;42.706;23.306;2022-08-03T13:31:59;95211.81;;;31.66;27.86
43934;BME280;59081;42.706;23.306;2022-08-03T13:34:24;95164.88;;;30.79;29.09
43934;BME280;59081;42.706;23.306;2022-08-03T13:36:51;95153.16;;;30.45;29.30
43934;BME280;59081;42.706;23.306;2022-08-03T13:39:17;95168.88;;;30.54;28.35
43934;BME280;59081;42.706;23.306;2022-08-03T13:41:44;95184.44;;;30.30;29.20
43934;BME280;59081;42.706;23.306;2022-08-03T13:44:10;95166.44;;;30.27;28.61
43934;BME280;59081;42.706;23.306;2022-08-03T13:46:36;95158.84;;;30.37;28.53
43934;BME280;59081;42.706;23.306;2022-08-03T13:49:01;95218.53;;;30.75;28.97
43934;BME280;59081;42.706;23.306;2022-08-03T13:51:27;95131.97;;;30.00;29.12
43934;BME280;59081;42.706;23.306;2022-08-03T13:53:52;95216.66;;;30.55;29.12
43934;BME280;59081;42.706;23.306;2022-08-03T13:56:18;95152.81;;;30.10;29.32
43934;BME280;59081;42.706;23.306;2022-08-03T13:58:43;95183.47;;;30.50;28.76
43934;BME280;59081;42.706;23.306;2022-08-03T14:01:09;95125.13;;;30.34;28.71
43934;BME280;59081;42.706;23.306;2022-08-03T14:06:09;95183.28;;;30.25;28.91
43934;BME280;59081;42.706;23.306;2022-08-03T14:11:11;95192.34;;;29.93;29.78
43934;BME280;59081;42.706;23.306;2022-08-03T14:13:37;95186.88;;;29.95;29.40
43934;BME280;59081;42.706;23.306;2022-08-03T14:16:02;95133.63;;;29.65;29.62
43934;BME280;59081;42.706;23.306;2022-08-03T14:18:28;95120.59;;;29.11;30.00